Time;durP1;ratioP1;P1;durP2;ratioP2;P2;SDS_P1;SDS_P2;PMS_P1;PMS_P2;Temp;Humidity;BMP_temperature;BMP_pressure;BME280_temperature;BME280_humidity;BME280_pressure;Samples;Min_cycle;Max_cycle;Signal;HPM_P1;HPM_P2
2024/03/09 00:00:43;;;;;;;50.20;22.05;;;5.60;72.70;;;;;;9172100;19;20025;-63
2024/03/09 00:03:52;;;;;;;44.35;21.60;;;5.50;72.70;;;;;;9175576;19;20353;-65
2024/03/09 00:07:00;;;;;;;49.17;22.35;;;5.50;72.80;;;;;;9175581;19;20418;-63
2024/03/09 00:10:11;;;;;;;45.22;21.35;;;5.50;72.80;;;;;;9175139;19;20435;-65
2024/03/09 00:13:16;;;;;;;47.55;22.15;;;5.50;72.80;;;;;;9175723;19;20015;-64
2024/03/09 00:16:24;;;;;;;50.17;21.05;;;5.50;72.80;;;;;;9175328;19;20014;-65
2024/03/09 00:19:29;;;;;;;48.65;21.65;;;5.40;72.80;;;;;;9174763;19;20041;-65
2024/03/09 00:22:40;;;;;;;45.90;21.95;;;5.40;72.80;;;;;;9172513;19;20038;-65
2024/03/09 00:25:45;;;;;;;48.72;22.48;;;5.40;72.90;;;;;;9174972;19;20014;-63
2024/03/09 00:28:53;;;;;;;42.20;22.13;;;5.40;72.90;;;;;;9170727;19;20010;-63
2024/03/09 00:32:00;;;;;;;50.97;22.45;;;5.40;72.90;;;;;;9173485;19;20090;-65
2024/03/09 00:35:08;;;;;;;47.67;22.95;;;5.40;73.00;;;;;;9173102;19;20010;-64
2024/03/09 00:38:17;;;;;;;51.85;22.88;;;5.30;72.90;;;;;;9169136;19;20018;-64
2024/03/09 00:41:25;;;;;;;46.03;21.88;;;5.20;72.90;;;;;;9171473;19;20026;-65
2024/03/09 00:44:41;;;;;;;49.25;21.52;;;5.20;73.00;;;;;;9172878;19;20037;-65
2024/03/09 00:47:48;;;;;;;47.55;22.25;;;5.20;73.00;;;;;;9172438;19;20105;-64
2024/03/09 00:50:54;;;;;;;52.47;23.10;;;5.20;73.10;;;;;;9172395;19;21327;-64
2024/03/09 00:54:04;;;;;;;49.88;23.42;;;5.20;73.00;;;;;;9173009;19;20010;-65
2024/03/09 00:57:10;;;;;;;50.08;22.02;;;5.20;73.10;;;;;;9173094;19;20495;-65
2024/03/09 01:00:19;;;;;;;48.08;21.85;;;5.10;73.20;;;;;;9172441;19;20010;-64
2024/03/09 01:03:29;;;;;;;44.97;22.08;;;5.10;73.20;;;;;;9171486;19;20098;-64
2024/03/09 01:06:37;;;;;;;48.80;20.85;;;5.10;73.20;;;;;;9171144;19;20010;-65
2024/03/09 01:09:48;;;;;;;50.42;23.05;;;5.10;73.20;;;;;;9172494;19;20393;-64
2024/03/09 01:12:55;;;;;;;52.53;21.05;;;5.10;73.30;;;;;;9178487;19;20026;-64
2024/03/09 01:16:01;;;;;;;42.92;21.23;;;5.10;73.30;;;;;;9181736;19;20059;-65
2024/03/09 01:19:09;;;;;;;48.90;23.10;;;5.00;73.20;;;;;;9182187;19;20014;-66
2024/03/09 01:22:15;;;;;;;50.25;21.10;;;5.00;73.30;;;;;;9180143;19;20017;-64
2024/03/09 01:25:25;;;;;;;46.13;21.83;;;5.00;73.30;;;;;;9177976;19;20011;-64
2024/03/09 01:28:31;;;;;;;51.47;21.55;;;5.00;73.30;;;;;;9181485;19;20014;-67
2024/03/09 01:31:39;;;;;;;47.03;21.33;;;5.00;73.40;;;;;;9181276;19;20022;-65
2024/03/09 01:34:45;;;;;;;46.90;21.63;;;5.00;73.40;;;;;;9180603;19;20017;-64
2024/03/09 01:37:52;;;;;;;47.42;21.77;;;4.90;73.40;;;;;;9178886;19;20018;-65
2024/03/09 01:41:01;;;;;;;51.13;21.55;;;4.90;73.40;;;;;;9175817;19;20367;-64
2024/03/09 01:44:09;;;;;;;47.30;20.25;;;4.90;73.40;;;;;;9182010;19;20073;-63
2024/03/09 01:47:15;;;;;;;48.40;21.70;;;4.90;73.40;;;;;;9182824;19;20011;-64
2024/03/09 01:50:23;;;;;;;45.88;22.35;;;4.80;73.40;;;;;;9183923;19;20476;-65
2024/03/09 01:53:29;;;;;;;49.25;20.23;;;4.80;73.50;;;;;;9181949;19;20014;-65
2024/03/09 01:56:40;;;;;;;42.42;20.73;;;4.80;73.50;;;;;;9180968;19;20019;-65
2024/03/09 01:59:49;;;;;;;50.13;22.42;;;4.80;73.60;;;;;;9181276;19;20041;-64
2024/03/09 02:02:58;;;;;;;52.05;21.73;;;4.80;73.50;;;;;;9177037;19;20019;-63
2024/03/09 02:06:05;;;;;;;42.38;20.40;;;4.80;73.50;;;;;;9174318;19;20014;-63
2024/03/09 02:09:13;;;;;;;46.63;20.20;;;4.70;73.50;;;;;;9179660;19;20057;-64
2024/03/09 02:12:23;;;;;;;48.63;20.58;;;4.70;73.60;;;;;;9179396;19;20018;-64
2024/03/09 02:15:30;;;;;;;45.13;20.63;;;4.70;73.70;;;;;;9179209;19;20014;-64
2024/03/09 02:18:36;;;;;;;45.65;21.65;;;4.70;73.60;;;;;;9181001;19;20019;-63
2024/03/09 02:21:45;;;;;;;53.67;21.23;;;4.70;73.60;;;;;;9176195;19;20384;-64
2024/03/09 02:24:58;;;;;;;41.78;20.63;;;4.70;73.60;;;;;;9174940;19;20010;-64
2024/03/09 02:28:05;;;;;;;;;;;4.70;73.70;;;;;;9180438;19;20104;-64
2024/03/09 02:31:13;;;;;;;43.35;19.23;;;4.70;73.60;;;;;;9179437;19;19918;-63
2024/03/09 02:34:21;;;;;;;48.67;22.15;;;4.60;73.60;;;;;;9178607;19;20376;-63
2024/03/09 02:37:26;;;;;;;46.10;21.33;;;4.60;73.60;;;;;;9178817;19;20085;-64
2024/03/09 02:40:37;;;;;;;42.38;19.73;;;4.60;73.70;;;;;;9174013;19;20134;-63
2024/03/09 02:43:43;;;;;;;44.13;20.20;;;4.50;73.70;;;;;;9175337;19;20467;-64
2024/03/09 02:46:51;;;;;;;47.78;20.33;;;4.50;73.70;;;;;;9179032;19;20014;-63
2024/03/09 02:49:57;;;;;;;49.95;20.75;;;4.50;73.70;;;;;;9178110;19;20021;-64
2024/03/09 02:53:06;;;;;;;44.28;20.95;;;4.50;73.80;;;;;;9178898;19;20014;-65
2024/03/09 02:56:18;;;;;;;48.38;21.00;;;4.50;73.80;;;;;;9177817;19;20029;-64
2024/03/09 02:59:25;;;;;;;46.80;20.88;;;4.50;73.90;;;;;;9178289;19;20011;-65
2024/03/09 03:05:54;;;;;;;47.90;20.90;;;4.50;73.80;;;;;;9177407;19;20024;-65
2024/03/09 03:09:11;;;;;;;51.70;20.88;;;4.40;73.80;;;;;;9177983;19;20017;-65
2024/03/09 03:12:22;;;;;;;47.67;20.45;;;4.40;73.80;;;;;;9177361;19;20022;-63
2024/03/09 03:15:28;;;;;;;41.83;20.08;;;4.40;73.90;;;;;;9177359;19;20701;-64
2024/03/09 03:18:36;;;;;;;40.60;19.50;;;4.30;73.80;;;;;;9173831;19;20082;-63
2024/03/09 03:21:42;;;;;;;45.13;20.60;;;4.30;73.80;;;;;;9176539;19;20010;-63
2024/03/09 03:24:50;;;;;;;41.97;20.05;;;4.30;73.80;;;;;;9177060;19;20729;-63
2024/03/09 03:27:58;;;;;;;44.38;19.63;;;4.30;73.80;;;;;;9176676;19;20042;-63
2024/03/09 03:31:05;;;;;;;43.90;20.20;;;4.30;73.90;;;;;;9176411;19;20022;-63
2024/03/09 03:34:12;;;;;;;47.97;20.05;;;4.20;73.80;;;;;;9176833;19;20050;-63
2024/03/09 03:37:20;;;;;;;40.13;18.88;;;4.20;73.90;;;;;;9174950;19;20039;-63
2024/03/09 03:40:25;;;;;;;44.88;19.92;;;4.20;73.90;;;;;;9172022;19;20598;-63
2024/03/09 03:43:37;;;;;;;44.13;18.92;;;4.20;73.90;;;;;;9174201;19;20025;-62
2024/03/09 03:46:43;;;;;;;40.97;19.92;;;4.10;73.90;;;;;;9176218;19;20407;-64
2024/03/09 03:49:51;;;;;;;45.10;21.17;;;4.10;73.90;;;;;;9176416;19;20459;-64
2024/03/09 03:52:56;;;;;;;45.25;19.25;;;4.10;74.10;;;;;;9177114;19;20015;-63
2024/03/09 03:56:04;;;;;;;42.78;19.58;;;4.10;74.10;;;;;;9173337;19;20014;-65
2024/03/09 03:59:13;;;;;;;42.15;19.55;;;4.10;74.20;;;;;;9175371;19;20059;-65
2024/03/09 04:02:20;;;;;;;40.67;19.38;;;4.00;74.10;;;;;;9174877;19;20010;-63
2024/03/09 04:05:28;;;;;;;40.08;19.95;;;4.00;74.10;;;;;;9175541;19;20352;-65
2024/03/09 04:08:36;;;;;;;40.25;19.20;;;4.00;74.10;;;;;;9175365;19;20589;-64
2024/03/09 04:11:43;;;;;;;40.30;19.10;;;4.00;74.10;;;;;;9174951;19;20015;-64
2024/03/09 04:14:57;;;;;;;40.13;18.77;;;3.90;74.10;;;;;;9172921;19;20443;-63
2024/03/09 04:18:04;;;;;;;42.97;19.38;;;4.00;74.10;;;;;;9174713;19;20364;-65
2024/03/09 04:21:13;;;;;;;45.03;20.50;;;3.90;74.20;;;;;;9175763;19;20801;-64
2024/03/09 04:24:18;;;;;;;42.85;20.17;;;3.90;74.20;;;;;;9172246;19;20010;-65
2024/03/09 04:27:26;;;;;;;46.03;20.50;;;3.90;74.20;;;;;;9173480;19;20030;-65
2024/03/09 04:30:36;;;;;;;40.30;19.27;;;3.90;74.30;;;;;;9174105;19;20018;-63
2024/03/09 04:33:44;;;;;;;48.80;20.50;;;3.90;74.30;;;;;;9173505;19;20030;-65
2024/03/09 04:36:50;;;;;;;47.20;21.35;;;3.90;74.30;;;;;;9172752;19;20146;-64
2024/03/09 04:39:58;;;;;;;40.63;19.58;;;3.80;74.30;;;;;;9170268;19;20010;-64
2024/03/09 04:43:06;;;;;;;41.10;19.80;;;3.80;74.30;;;;;;9174142;19;20011;-64
2024/03/09 04:46:16;;;;;;;45.22;20.33;;;3.80;74.30;;;;;;9171980;19;20010;-63
2024/03/09 04:49:24;;;;;;;40.10;19.92;;;3.80;74.40;;;;;;9172455;19;20006;-65
2024/03/09 04:52:37;;;;;;;44.40;20.23;;;3.80;74.40;;;;;;9173318;19;20082;-64
2024/03/09 04:55:47;;;;;;;42.45;19.45;;;3.70;74.40;;;;;;9173629;19;20062;-64
2024/03/09 04:58:56;;;;;;;45.13;20.40;;;3.70;74.40;;;;;;9172046;19;20018;-64
2024/03/09 05:02:05;;;;;;;36.28;19.25;;;3.70;74.40;;;;;;9173224;19;20011;-64
2024/03/09 05:05:17;;;;;;;42.63;19.42;;;3.70;74.50;;;;;;9171961;19;20051;-65
2024/03/09 05:08:24;;;;;;;45.30;20.60;;;3.70;74.40;;;;;;9172348;19;20011;-63
2024/03/09 05:11:33;;;;;;;44.33;20.95;;;3.70;74.50;;;;;;9172741;19;20018;-64
2024/03/09 05:14:39;;;;;;;41.55;20.13;;;3.60;74.50;;;;;;9172226;19;20017;-64
2024/03/09 05:17:49;;;;;;;41.80;19.15;;;3.60;74.50;;;;;;9172234;19;20029;-64
2024/03/09 05:20:55;;;;;;;45.95;20.48;;;3.60;74.50;;;;;;9172507;19;20042;-64
2024/03/09 05:24:03;;;;;;;42.80;21.08;;;3.60;74.50;;;;;;9169729;19;20019;-64
2024/03/09 05:27:09;;;;;;;37.10;18.60;;;3.60;74.60;;;;;;9172184;19;20421;-64
2024/03/09 05:30:18;;;;;;;43.67;21.00;;;3.60;74.60;;;;;;9172160;19;20010;-63
2024/03/09 05:33:27;;;;;;;45.63;20.67;;;3.60;74.60;;;;;;9171791;19;20014;-63
2024/03/09 05:36:35;;;;;;;43.85;20.05;;;3.60;74.70;;;;;;9170727;19;20023;-64
2024/03/09 05:39:40;;;;;;;45.17;21.60;;;3.60;74.70;;;;;;9167290;19;20013;-64
2024/03/09 05:42:50;;;;;;;47.25;20.13;;;3.50;74.70;;;;;;9170942;19;20045;-64
2024/03/09 05:45:55;;;;;;;38.25;18.85;;;3.50;74.70;;;;;;9168803;19;20014;-65
2024/03/09 05:49:08;;;;;;;42.97;19.02;;;3.50;74.70;;;;;;9171225;19;20014;-64
2024/03/09 05:52:13;;;;;;;44.72;19.80;;;3.50;74.80;;;;;;9171428;19;20015;-63
2024/03/09 05:55:21;;;;;;;45.60;19.83;;;3.50;75.40;;;;;;9172319;19;20022;-63
2024/03/09 05:58:27;;;;;;;40.75;19.17;;;3.50;74.80;;;;;;9169155;19;20006;-64
2024/03/09 06:01:35;;;;;;;39.25;18.80;;;3.50;74.90;;;;;;9180594;19;20517;-64
2024/03/09 06:04:44;;;;;;;42.63;19.10;;;3.50;74.90;;;;;;9177568;19;20024;-64
2024/03/09 06:07:54;;;;;;;43.05;19.30;;;3.50;74.90;;;;;;9177361;19;20014;-63
2024/03/09 06:10:59;;;;;;;40.45;18.83;;;3.50;74.90;;;;;;9178626;19;20007;-65
2024/03/09 06:14:10;;;;;;;36.72;18.30;;;3.50;74.90;;;;;;9180299;19;20022;-64
2024/03/09 06:17:16;;;;;;;38.58;18.17;;;3.40;74.90;;;;;;9179577;19;20032;-65
2024/03/09 06:20:26;;;;;;;42.63;19.50;;;3.50;75.00;;;;;;9178540;19;20482;-64
2024/03/09 06:23:35;;;;;;;38.00;18.63;;;3.40;74.90;;;;;;9178056;19;20022;-64
2024/03/09 06:26:43;;;;;;;40.70;19.83;;;3.40;74.90;;;;;;9181157;19;20345;-64
2024/03/09 06:29:49;;;;;;;40.35;18.55;;;3.40;75.00;;;;;;9182217;19;20070;-63
2024/03/09 06:32:57;;;;;;;42.17;18.83;;;3.40;75.10;;;;;;9181127;19;20010;-63
2024/03/09 06:36:12;;;;;;;36.58;18.40;;;3.40;75.10;;;;;;9180725;19;20013;-63
2024/03/09 06:39:21;;;;;;;45.50;21.48;;;3.40;75.20;;;;;;9173469;19;20018;-63
2024/03/09 06:42:27;;;;;;;40.08;19.25;;;3.40;75.30;;;;;;9180267;19;20101;-63
2024/03/09 06:45:36;;;;;;;43.95;21.08;;;3.50;75.30;;;;;;9177023;19;20015;-63
2024/03/09 06:48:41;;;;;;;39.00;17.42;;;3.50;75.30;;;;;;9179038;19;20015;-63
2024/03/09 06:51:51;;;;;;;38.20;18.30;;;3.50;75.30;;;;;;9179256;19;20467;-63
2024/03/09 06:54:57;;;;;;;34.13;17.50;;;3.50;75.40;;;;;;9180656;19;20015;-63
2024/03/09 06:58:05;;;;;;;51.88;19.17;;;3.60;75.50;;;;;;9179175;19;20508;-63
2024/03/09 07:01:19;;;;;;;39.50;18.50;;;3.60;75.50;;;;;;9178112;19;20025;-63
2024/03/09 07:04:28;;;;;;;36.33;17.70;;;3.60;75.50;;;;;;9178482;19;20018;-63
2024/03/09 07:07:36;;;;;;;41.20;19.40;;;3.70;75.60;;;;;;9178485;19;20055;-63
2024/03/09 07:10:43;;;;;;;41.13;19.50;;;3.70;75.60;;;;;;9177679;19;20026;-63
2024/03/09 07:13:49;;;;;;;39.20;19.08;;;3.80;75.60;;;;;;9178032;19;20021;-63
2024/03/09 07:16:56;;;;;;;38.95;18.73;;;3.80;75.60;;;;;;9178016;19;20399;-64
2024/03/09 07:20:10;;;;;;;35.33;18.15;;;3.90;76.30;;;;;;9175281;19;20018;-63
2024/03/09 07:23:22;;;;;;;44.42;18.67;;;3.90;75.80;;;;;;9176824;19;20381;-64
2024/03/09 07:26:27;;;;;;;38.78;18.05;;;4.00;75.80;;;;;;9175692;19;20014;-63
2024/03/09 07:29:35;;;;;;;39.05;18.50;;;4.10;75.90;;;;;;9177448;19;20019;-65
2024/03/09 07:32:43;;;;;;;36.05;17.63;;;4.20;75.90;;;;;;9177052;19;20014;-64
2024/03/09 07:35:51;;;;;;;36.47;18.40;;;4.30;76.10;;;;;;9178355;19;20372;-64
2024/03/09 07:38:59;;;;;;;40.65;17.20;;;4.40;76.10;;;;;;9170779;19;20412;-64
2024/03/09 07:42:09;;;;;;;35.13;16.83;;;4.50;76.20;;;;;;9176658;19;20501;-65
2024/03/09 07:45:16;;;;;;;36.22;17.83;;;4.70;76.30;;;;;;9175673;19;20018;-63
2024/03/09 07:48:23;;;;;;;37.33;17.23;;;4.80;76.30;;;;;;9176119;19;20022;-63
2024/03/09 07:51:29;;;;;;;32.45;16.63;;;5.00;76.50;;;;;;9176773;19;20014;-63
2024/03/09 07:54:40;;;;;;;34.05;17.23;;;5.10;76.40;;;;;;9176645;19;20021;-63
2024/03/09 07:57:46;;;;;;;36.67;17.05;;;5.30;76.40;;;;;;9174868;19;20022;-64
2024/03/09 08:00:54;;;;;;;34.30;16.02;;;5.50;76.50;;;;;;9175957;19;20035;-63
2024/03/09 08:03:59;;;;;;;34.38;15.13;;;5.60;76.40;;;;;;9176428;19;20019;-63
2024/03/09 08:07:07;;;;;;;32.35;16.13;;;5.70;76.30;;;;;;9174544;19;20033;-63
2024/03/09 08:10:17;;;;;;;35.53;17.17;;;5.90;76.30;;;;;;9176348;19;20021;-63
2024/03/09 08:13:26;;;;;;;26.13;14.77;;;6.00;76.80;;;;;;9175867;19;20022;-63
2024/03/09 08:16:32;;;;;;;37.78;17.00;;;6.10;76.20;;;;;;9176067;19;20356;-63
2024/03/09 08:19:40;;;;;;;35.78;15.93;;;6.20;76.20;;;;;;9175047;19;20340;-63
2024/03/09 08:22:46;;;;;;;37.88;17.20;;;6.30;76.00;;;;;;9173710;19;20018;-64
2024/03/09 08:25:58;;;;;;;35.95;16.33;;;6.50;75.90;;;;;;9174688;19;20026;-63
2024/03/09 08:29:03;;;;;;;30.33;15.27;;;6.60;75.80;;;;;;9175210;19;20014;-63
2024/03/09 08:32:11;;;;;;;29.90;14.80;;;6.60;75.60;;;;;;9175524;19;20375;-64
2024/03/09 08:35:20;;;;;;;39.95;16.52;;;6.70;75.60;;;;;;9175389;19;20018;-64
2024/03/09 08:38:27;;;;;;;33.90;15.35;;;6.80;75.60;;;;;;9169279;19;20527;-63
2024/03/09 08:41:36;;;;;;;28.60;15.32;;;6.90;75.60;;;;;;9174816;19;20015;-64
2024/03/09 08:44:44;;;;;;;33.53;15.65;;;7.00;75.50;;;;;;9174591;19;20022;-64
2024/03/09 08:47:50;;;;;;;28.85;14.90;;;7.00;75.40;;;;;;9174945;19;20046;-65
2024/03/09 08:50:59;;;;;;;33.40;16.13;;;7.10;75.40;;;;;;9174869;19;20014;-65
2024/03/09 08:54:05;;;;;;;36.75;16.35;;;7.20;75.40;;;;;;9172954;19;20006;-65
2024/03/09 08:57:17;;;;;;;29.48;15.18;;;7.30;75.50;;;;;;9172809;19;20026;-65
2024/03/09 09:00:24;;;;;;;32.78;15.73;;;7.50;75.70;;;;;;9174131;19;20022;-65
2024/03/09 09:03:33;;;;;;;32.38;15.23;;;7.70;75.70;;;;;;9173649;19;20015;-65
2024/03/09 09:06:39;;;;;;;29.80;15.43;;;7.90;75.80;;;;;;9172717;19;20047;-65
2024/03/09 09:09:46;;;;;;;26.90;13.10;;;8.10;75.70;;;;;;9173924;19;20120;-64
2024/03/09 09:12:54;;;;;;;26.30;13.77;;;8.20;75.40;;;;;;9174064;19;20032;-65
2024/03/09 09:16:03;;;;;;;25.08;13.57;;;8.40;75.40;;;;;;9174260;19;20354;-65
2024/03/09 09:19:09;;;;;;;25.08;13.40;;;8.60;75.20;;;;;;9173934;19;20015;-65
2024/03/09 09:22:16;;;;;;;25.42;13.65;;;8.70;75.00;;;;;;9174468;19;20010;-65
2024/03/09 09:25:25;;;;;;;29.00;14.32;;;8.80;75.00;;;;;;9174082;19;20078;-66
2024/03/09 09:28:41;;;;;;;24.50;13.27;;;9.00;75.00;;;;;;9172968;19;20364;-66
2024/03/09 09:31:47;;;;;;;25.95;12.90;;;9.20;75.00;;;;;;9173360;19;20090;-64
2024/03/09 09:34:55;;;;;;;23.40;13.02;;;9.40;74.70;;;;;;9176193;19;20021;-66
2024/03/09 09:38:01;;;;;;;26.33;12.52;;;9.50;74.50;;;;;;9179141;19;20424;-66
2024/03/09 09:41:11;;;;;;;26.23;12.73;;;9.70;74.40;;;;;;9176236;19;20486;-66
2024/03/09 09:44:20;;;;;;;25.00;13.02;;;9.80;74.10;;;;;;9181565;19;20011;-65
2024/03/09 09:47:29;;;;;;;24.25;12.25;;;9.90;74.10;;;;;;9178302;19;20029;-65
2024/03/09 09:50:37;;;;;;;25.92;13.38;;;10.10;74.10;;;;;;9177819;19;20037;-65
2024/03/09 09:53:46;;;;;;;24.00;12.32;;;10.20;74.00;;;;;;9181125;19;20022;-65
2024/03/09 09:56:53;;;;;;;23.52;12.38;;;10.40;73.80;;;;;;9181207;19;20014;-66
2024/03/09 10:00:07;;;;;;;24.23;12.65;;;10.50;73.70;;;;;;9179248;19;20014;-66
2024/03/09 10:03:12;;;;;;;22.02;12.05;;;10.60;73.40;;;;;;9175865;19;20023;-65
2024/03/09 10:06:21;;;;;;;26.05;13.45;;;10.80;74.00;;;;;;9178303;19;20021;-66
2024/03/09 10:09:30;;;;;;;23.13;12.27;;;10.90;73.10;;;;;;9180782;19;20368;-65
2024/03/09 10:12:41;;;;;;;22.23;11.93;;;11.00;73.00;;;;;;9181178;19;20018;-65
2024/03/09 10:15:50;;;;;;;23.45;12.20;;;11.10;73.00;;;;;;9176523;19;20022;-68
2024/03/09 10:18:58;;;;;;;26.52;12.60;;;11.20;72.80;;;;;;9179715;19;20010;-67
2024/03/09 10:22:04;;;;;;;23.42;13.07;;;11.40;72.80;;;;;;9180041;19;20022;-66
2024/03/09 10:25:14;;;;;;;22.05;12.88;;;11.50;72.70;;;;;;9181178;19;20018;-65
2024/03/09 10:28:19;;;;;;;21.98;11.38;;;11.70;72.60;;;;;;9177735;19;20049;-66
2024/03/09 10:31:30;;;;;;;23.73;13.32;;;11.80;72.40;;;;;;9179594;19;20023;-65
2024/03/09 10:34:35;;;;;;;26.58;13.25;;;11.90;72.10;;;;;;9179825;19;20348;-66
2024/03/09 10:37:44;;;;;;;20.58;12.25;;;12.00;72.10;;;;;;9178525;19;20026;-65
2024/03/09 10:40:51;;;;;;;21.88;12.88;;;12.10;71.80;;;;;;9175502;19;20026;-65
2024/03/09 10:44:01;;;;;;;27.98;12.80;;;12.20;71.60;;;;;;9178435;19;20010;-64
2024/03/09 10:47:13;;;;;;;24.50;13.05;;;12.30;71.60;;;;;;9178134;19;20070;-66
2024/03/09 10:50:25;;;;;;;24.35;11.95;;;12.40;71.50;;;;;;9180338;19;20015;-65
2024/03/09 10:53:44;;;;;;;24.50;13.43;;;12.40;71.20;;;;;;9178163;19;20014;-65
2024/03/09 10:56:55;;;;;;;24.30;12.63;;;12.50;71.00;;;;;;9171939;19;20007;-64
2024/03/09 11:00:03;;;;;;;22.67;11.77;;;12.60;71.00;;;;;;9173162;19;20018;-65
2024/03/09 11:03:14;;;;;;;22.85;12.45;;;12.60;70.70;;;;;;9180024;19;20015;-64
2024/03/09 11:06:21;;;;;;;22.73;12.77;;;12.60;70.40;;;;;;9179821;19;20482;-65
2024/03/09 11:09:32;;;;;;;25.60;13.70;;;12.60;70.50;;;;;;9179513;19;20041;-64
2024/03/09 11:12:37;;;;;;;28.40;13.10;;;12.60;70.30;;;;;;9179279;19;20024;-64
2024/03/09 11:15:45;;;;;;;26.95;13.30;;;12.60;70.20;;;;;;9179124;19;20021;-66
2024/03/09 11:18:58;;;;;;;26.88;13.10;;;12.60;70.10;;;;;;9178889;19;20019;-65
2024/03/09 11:22:07;;;;;;;26.23;13.57;;;12.60;70.00;;;;;;9178315;19;20487;-64
2024/03/09 11:25:14;;;;;;;29.38;14.50;;;12.60;70.00;;;;;;9177229;19;20035;-65
2024/03/09 11:28:27;;;;;;;25.75;13.93;;;12.70;70.10;;;;;;9176181;19;20029;-64
2024/03/09 11:31:33;;;;;;;25.52;14.27;;;12.70;69.90;;;;;;9178427;19;20018;-64
2024/03/09 11:34:43;;;;;;;25.15;14.32;;;12.70;69.80;;;;;;9177374;19;20752;-65
2024/03/09 11:37:52;;;;;;;28.00;14.30;;;12.80;69.60;;;;;;9176651;19;20025;-65
2024/03/09 11:40:59;;;;;;;24.23;13.63;;;12.80;69.50;;;;;;9173143;19;20033;-65
2024/03/09 11:44:07;;;;;;;23.85;13.93;;;12.80;69.40;;;;;;9175483;19;20049;-65
2024/03/09 11:47:16;;;;;;;23.15;12.68;;;12.80;69.50;;;;;;9176921;19;20022;-65
2024/03/09 11:50:24;;;;;;;23.33;12.07;;;12.90;70.10;;;;;;9177787;19;20025;-65
2024/03/09 11:53:33;;;;;;;25.60;12.85;;;13.00;69.40;;;;;;9177179;19;20033;-65
2024/03/09 11:56:40;;;;;;;24.35;13.63;;;13.10;69.30;;;;;;9174746;19;20018;-66
2024/03/09 11:59:48;;;;;;;23.73;12.52;;;13.20;69.20;;;;;;9175850;19;20049;-66
2024/03/09 12:02:53;;;;;;;23.52;13.40;;;13.30;69.00;;;;;;9176769;19;20021;-66
2024/03/09 12:06:04;;;;;;;24.30;11.80;;;13.30;68.90;;;;;;9176374;19;20484;-66
2024/03/09 12:09:12;;;;;;;22.88;12.43;;;13.40;68.80;;;;;;9174819;19;20047;-66
2024/03/09 12:12:21;;;;;;;28.92;13.77;;;13.40;68.70;;;;;;9176509;19;20022;-66
2024/03/09 12:15:28;;;;;;;21.88;13.05;;;13.50;68.60;;;;;;9174558;19;20051;-66
2024/03/09 12:18:37;;;;;;;26.27;13.10;;;13.50;68.40;;;;;;9175406;19;20030;-65
2024/03/09 12:21:46;;;;;;;24.13;13.27;;;13.50;68.40;;;;;;9176373;19;20006;-65
2024/03/09 12:24:54;;;;;;;27.17;14.32;;;13.50;68.20;;;;;;9175330;19;20029;-65
2024/03/09 12:28:00;;;;;;;22.73;13.00;;;13.50;68.20;;;;;;9174500;19;20030;-66
2024/03/09 12:31:09;;;;;;;29.35;13.55;;;13.50;68.20;;;;;;9175578;19;20019;-66
2024/03/09 12:34:17;;;;;;;25.17;14.40;;;13.50;68.10;;;;;;9176363;19;20006;-68
2024/03/09 12:37:31;;;;;;;25.98;13.57;;;13.50;68.10;;;;;;9174101;19;20019;-68
2024/03/09 12:40:37;;;;;;;23.98;13.07;;;13.60;68.00;;;;;;9167865;19;20014;-69
2024/03/09 12:43:44;;;;;;;23.42;12.63;;;13.70;68.20;;;;;;9175506;19;20033;-69
2024/03/09 12:46:50;;;;;;;24.73;12.95;;;13.70;68.00;;;;;;9174752;19;20459;-68
2024/03/09 12:49:57;;;;;;;27.55;13.02;;;13.80;67.90;;;;;;9170805;19;20029;-71
2024/03/09 12:53:07;;;;;;;24.17;12.50;;;13.90;67.80;;;;;;9174266;19;20022;-71
2024/03/09 12:56:15;;;;;;;29.15;12.45;;;14.00;67.60;;;;;;9174892;19;20352;-72
2024/03/09 12:59:26;;;;;;;25.08;12.82;;;14.00;67.70;;;;;;9173669;19;20017;-72
2024/03/09 13:02:36;;;;;;;23.98;13.73;;;14.10;67.50;;;;;;9173979;19;20021;-72
2024/03/09 13:05:50;;;;;;;29.77;13.25;;;14.10;67.30;;;;;;9168586;19;20526;-72
2024/03/09 13:09:00;;;;;;;27.53;13.37;;;14.00;67.20;;;;;;9176036;19;20018;-69
2024/03/09 13:12:07;;;;;;;26.17;13.23;;;14.00;67.00;;;;;;9183296;19;20029;-71
2024/03/09 13:15:15;;;;;;;32.10;11.77;;;13.90;66.90;;;;;;9182767;19;20030;-69
2024/03/09 13:18:22;;;;;;;22.08;12.43;;;13.90;66.90;;;;;;9182566;19;20049;-69
2024/03/09 13:21:30;;;;;;;20.85;12.25;;;13.80;66.90;;;;;;9181089;19;20015;-70
2024/03/09 13:24:38;;;;;;;23.30;12.57;;;13.80;66.80;;;;;;9176722;19;20106;-69
2024/03/09 13:27:45;;;;;;;34.08;13.50;;;13.80;66.80;;;;;;9182346;19;20018;-68
2024/03/09 13:30:51;;;;;;;24.02;11.95;;;13.80;66.90;;;;;;9181714;19;20014;-68
2024/03/09 13:34:02;;;;;;;21.92;12.13;;;13.80;66.80;;;;;;9181014;19;20013;-68
2024/03/09 13:37:11;;;;;;;25.00;12.93;;;13.80;66.70;;;;;;9178811;19;20037;-69
2024/03/09 13:40:25;;;;;;;20.65;11.88;;;13.70;66.50;;;;;;9175634;19;20010;-68
2024/03/09 13:43:31;;;;;;;27.35;12.82;;;13.70;66.50;;;;;;9181965;19;20031;-70
2024/03/09 13:46:38;;;;;;;29.25;13.32;;;13.70;67.30;;;;;;9177080;19;20018;-68
2024/03/09 13:49:45;;;;;;;24.08;13.52;;;13.60;66.60;;;;;;9179198;19;20025;-67
2024/03/09 13:52:53;;;;;;;25.27;14.13;;;13.60;67.30;;;;;;9180877;19;20022;-70
2024/03/09 13:56:01;;;;;;;26.20;13.75;;;13.50;66.60;;;;;;9181332;19;20692;-67
2024/03/09 13:59:13;;;;;;;24.20;13.43;;;13.50;66.60;;;;;;9181681;19;20014;-68
2024/03/09 14:02:21;;;;;;;24.90;12.85;;;13.50;66.50;;;;;;9179542;19;20697;-68
2024/03/09 14:05:29;;;;;;;24.60;12.82;;;13.50;66.50;;;;;;9180901;19;20018;-67
2024/03/09 14:08:35;;;;;;;24.70;13.30;;;13.50;66.60;;;;;;9179084;19;20014;-69
2024/03/09 14:11:45;;;;;;;25.38;13.93;;;13.50;66.50;;;;;;9175447;19;20037;-68
2024/03/09 14:14:54;;;;;;;26.38;13.88;;;13.50;67.00;;;;;;9179845;19;20503;-68
2024/03/09 14:18:03;;;;;;;26.70;13.20;;;13.50;66.50;;;;;;9180998;19;20024;-68
2024/03/09 14:21:17;;;;;;;22.08;12.50;;;13.50;66.50;;;;;;9178387;19;20024;-68
2024/03/09 14:24:24;;;;;;;24.38;13.73;;;13.50;66.40;;;;;;9180006;19;20018;-69
2024/03/09 14:27:33;;;;;;;21.08;12.15;;;13.50;66.40;;;;;;9180185;19;20139;-68
2024/03/09 14:30:44;;;;;;;27.10;13.47;;;13.50;66.30;;;;;;9174683;19;20010;-68
2024/03/09 14:33:50;;;;;;;21.85;13.10;;;13.50;66.40;;;;;;9177452;19;20398;-69
2024/03/09 14:37:00;;;;;;;21.95;12.82;;;13.50;66.40;;;;;;9179496;19;20019;-68
2024/03/09 14:40:11;;;;;;;28.25;14.10;;;13.50;66.40;;;;;;9173844;19;20050;-68
2024/03/09 14:43:23;;;;;;;27.05;13.95;;;13.50;66.30;;;;;;9179660;19;20018;-67
2024/03/09 14:46:29;;;;;;;27.75;14.68;;;13.50;66.50;;;;;;9179631;19;20022;-67
2024/03/09 14:49:37;;;;;;;24.70;13.57;;;13.50;66.20;;;;;;9178849;19;20019;-67
2024/03/09 14:52:42;;;;;;;23.33;13.60;;;13.50;66.20;;;;;;9176922;19;20018;-67
2024/03/09 14:55:51;;;;;;;24.38;13.35;;;13.50;66.10;;;;;;9177185;19;20022;-68
2024/03/09 14:59:05;;;;;;;25.98;13.40;;;13.50;66.00;;;;;;9177510;19;20026;-67
2024/03/09 15:02:13;;;;;;;24.50;13.55;;;13.50;66.00;;;;;;9178240;19;20022;-67
2024/03/09 15:05:16;;;;;;;23.83;13.55;;;13.50;66.00;;;;;;9178685;19;20015;-68
2024/03/09 15:08:25;;;;;;;26.13;14.02;;;13.50;66.00;;;;;;9176224;19;20018;-67
2024/03/09 15:11:31;;;;;;;23.73;13.00;;;13.50;66.00;;;;;;9177163;19;20017;-68
2024/03/09 15:14:45;;;;;;;28.83;13.63;;;13.50;66.00;;;;;;9176769;19;20022;-68
2024/03/09 15:17:51;;;;;;;40.67;16.15;;;13.60;65.90;;;;;;9177140;19;20002;-67
2024/03/09 15:21:00;;;;;;;26.52;14.48;;;13.50;65.80;;;;;;9174971;19;20484;-67
2024/03/09 15:24:06;;;;;;;25.73;13.80;;;13.50;65.80;;;;;;9177848;19;20047;-67
2024/03/09 15:27:14;;;;;;;27.63;13.95;;;13.50;65.80;;;;;;9176872;19;20761;-67
2024/03/09 15:30:23;;;;;;;26.42;13.27;;;13.50;65.80;;;;;;9175321;19;20932;-67
2024/03/09 15:33:31;;;;;;;21.15;12.60;;;13.50;65.80;;;;;;9177960;19;20023;-67
2024/03/09 15:36:37;;;;;;;28.95;14.35;;;13.50;65.80;;;;;;9175966;19;20599;-68
2024/03/09 15:39:44;;;;;;;22.38;13.02;;;13.40;65.70;;;;;;9173543;19;20022;-67
2024/03/09 15:42:50;;;;;;;23.80;13.07;;;13.40;65.80;;;;;;9176534;19;20081;-67
2024/03/09 15:46:04;;;;;;;25.50;13.77;;;13.40;66.10;;;;;;9178708;19;20018;-67
2024/03/09 15:49:09;;;;;;;29.08;14.88;;;13.40;65.70;;;;;;9176245;19;20050;-67
2024/03/09 15:52:18;;;;;;;25.98;12.48;;;13.40;65.70;;;;;;9177062;19;20022;-67
2024/03/09 15:55:25;;;;;;;23.40;12.77;;;13.40;65.80;;;;;;9177244;19;20018;-68
2024/03/09 15:58:32;;;;;;;23.73;13.00;;;13.30;65.70;;;;;;9174284;19;20018;-68
2024/03/09 16:01:41;;;;;;;24.55;12.93;;;13.30;65.60;;;;;;9176570;19;20014;-67
2024/03/09 16:04:49;;;;;;;26.90;12.70;;;13.20;65.50;;;;;;9176077;19;20019;-68